sensor_id;sensor_type;location;lat;lon;timestamp;P1;durP1;ratioP1;P2;durP2;ratioP2
32146;SDS011;32190;49.112;8.598;2022-10-13T00:03:20;1.58;;;1.48;;
32146;SDS011;32190;49.112;8.598;2022-10-13T00:09:10;2.25;;;1.60;;
32146;SDS011;32190;49.112;8.598;2022-10-13T00:15:01;2.10;;;2.00;;
32146;SDS011;32190;49.112;8.598;2022-10-13T00:20:52;2.63;;;2.10;;
32146;SDS011;32190;49.112;8.598;2022-10-13T00:26:43;4.20;;;2.20;;
32146;SDS011;32190;49.112;8.598;2022-10-13T00:32:34;1.70;;;1.60;;
32146;SDS011;32190;49.112;8.598;2022-10-13T00:38:24;2.53;;;1.67;;
32146;SDS011;32190;49.112;8.598;2022-10-13T00:50:43;2.05;;;1.95;;
32146;SDS011;32190;49.112;8.598;2022-10-13T00:56:35;2.38;;;2.17;;
32146;SDS011;32190;49.112;8.598;2022-10-13T01:02:28;2.13;;;1.92;;
32146;SDS011;32190;49.112;8.598;2022-10-13T01:08:23;2.42;;;2.22;;
32146;SDS011;32190;49.112;8.598;2022-10-13T01:14:22;2.60;;;2.40;;
32146;SDS011;32190;49.112;8.598;2022-10-13T01:20:28;4.47;;;2.03;;
32146;SDS011;32190;49.112;8.598;2022-10-13T01:38:26;1.97;;;1.80;;
32146;SDS011;32190;49.112;8.598;2022-10-13T01:44:28;2.75;;;2.45;;
32146;SDS011;32190;49.112;8.598;2022-10-13T01:50:23;2.53;;;2.30;;
32146;SDS011;32190;49.112;8.598;2022-10-13T01:56:15;2.13;;;1.92;;
32146;SDS011;32190;49.112;8.598;2022-10-13T02:08:09;2.38;;;2.17;;
32146;SDS011;32190;49.112;8.598;2022-10-13T02:14:11;1.65;;;1.55;;
32146;SDS011;32190;49.112;8.598;2022-10-13T02:20:13;2.88;;;2.63;;
32146;SDS011;32190;49.112;8.598;2022-10-13T02:26:06;1.80;;;1.70;;
32146;SDS011;32190;49.112;8.598;2022-10-13T02:31:56;1.77;;;1.67;;
32146;SDS011;32190;49.112;8.598;2022-10-13T02:37:47;1.60;;;1.50;;
32146;SDS011;32190;49.112;8.598;2022-10-13T02:43:41;1.77;;;1.67;;
32146;SDS011;32190;49.112;8.598;2022-10-13T02:49:31;1.60;;;1.50;;
32146;SDS011;32190;49.112;8.598;2022-10-13T02:55:22;1.83;;;1.73;;
32146;SDS011;32190;49.112;8.598;2022-10-13T03:01:13;1.80;;;1.70;;
32146;SDS011;32190;49.112;8.598;2022-10-13T03:07:04;2.55;;;1.88;;
32146;SDS011;32190;49.112;8.598;2022-10-13T03:12:55;1.70;;;1.45;;
32146;SDS011;32190;49.112;8.598;2022-10-13T03:18:46;1.83;;;1.73;;
32146;SDS011;32190;49.112;8.598;2022-10-13T03:24:36;1.67;;;1.58;;
32146;SDS011;32190;49.112;8.598;2022-10-13T03:30:27;1.52;;;1.42;;
32146;SDS011;32190;49.112;8.598;2022-10-13T03:36:21;1.92;;;1.42;;
32146;SDS011;32190;49.112;8.598;2022-10-13T03:42:17;1.58;;;1.48;;
32146;SDS011;32190;49.112;8.598;2022-10-13T03:48:11;3.90;;;1.80;;
32146;SDS011;32190;49.112;8.598;2022-10-13T03:54:01;1.67;;;1.58;;
32146;SDS011;32190;49.112;8.598;2022-10-13T03:59:55;2.10;;;1.90;;
32146;SDS011;32190;49.112;8.598;2022-10-13T04:05:46;1.83;;;1.73;;
32146;SDS011;32190;49.112;8.598;2022-10-13T04:11:40;1.75;;;1.65;;
32146;SDS011;32190;49.112;8.598;2022-10-13T04:17:33;1.40;;;1.30;;
32146;SDS011;32190;49.112;8.598;2022-10-13T04:23:26;1.17;;;1.15;;
32146;SDS011;32190;49.112;8.598;2022-10-13T04:29:24;1.05;;;0.95;;
32146;SDS011;32190;49.112;8.598;2022-10-13T04:35:15;1.23;;;1.20;;
32146;SDS011;32190;49.112;8.598;2022-10-13T04:41:06;1.15;;;1.13;;
32146;SDS011;32190;49.112;8.598;2022-10-13T04:47:03;1.17;;;1.07;;
32146;SDS011;32190;49.112;8.598;2022-10-13T04:52:57;1.15;;;1.15;;
32146;SDS011;32190;49.112;8.598;2022-10-13T04:58:50;2.05;;;1.30;;
32146;SDS011;32190;49.112;8.598;2022-10-13T05:04:41;1.25;;;1.13;;
32146;SDS011;32190;49.112;8.598;2022-10-13T05:10:32;1.55;;;1.13;;
32146;SDS011;32190;49.112;8.598;2022-10-13T05:16:23;2.38;;;2.13;;
32146;SDS011;32190;49.112;8.598;2022-10-13T05:22:14;2.95;;;2.58;;
32146;SDS011;32190;49.112;8.598;2022-10-13T05:28:05;1.65;;;1.55;;
32146;SDS011;32190;49.112;8.598;2022-10-13T05:33:57;1.63;;;1.52;;
32146;SDS011;32190;49.112;8.598;2022-10-13T05:39:48;1.45;;;1.35;;
32146;SDS011;32190;49.112;8.598;2022-10-13T05:45:38;3.88;;;1.65;;
32146;SDS011;32190;49.112;8.598;2022-10-13T05:51:34;2.97;;;1.98;;
32146;SDS011;32190;49.112;8.598;2022-10-13T05:57:29;1.40;;;1.30;;
32146;SDS011;32190;49.112;8.598;2022-10-13T06:03:22;1.60;;;1.50;;
32146;SDS011;32190;49.112;8.598;2022-10-13T06:09:13;1.60;;;1.48;;
32146;SDS011;32190;49.112;8.598;2022-10-13T06:15:04;2.15;;;1.80;;
32146;SDS011;32190;49.112;8.598;2022-10-13T06:20:54;3.17;;;1.60;;
32146;SDS011;32190;49.112;8.598;2022-10-13T06:26:45;1.45;;;1.23;;
32146;SDS011;32190;49.112;8.598;2022-10-13T06:32:36;3.50;;;1.83;;
32146;SDS011;32190;49.112;8.598;2022-10-13T06:38:26;2.00;;;1.70;;
32146;SDS011;32190;49.112;8.598;2022-10-13T06:44:17;2.28;;;2.05;;
32146;SDS011;32190;49.112;8.598;2022-10-13T06:50:07;1.58;;;1.48;;
32146;SDS011;32190;49.112;8.598;2022-10-13T06:55:58;5.80;;;2.05;;
32146;SDS011;32190;49.112;8.598;2022-10-13T07:01:50;2.55;;;2.35;;
32146;SDS011;32190;49.112;8.598;2022-10-13T07:07:41;2.08;;;1.90;;
32146;SDS011;32190;49.112;8.598;2022-10-13T07:13:34;4.07;;;1.77;;
32146;SDS011;32190;49.112;8.598;2022-10-13T07:19:25;2.05;;;1.83;;
32146;SDS011;32190;49.112;8.598;2022-10-13T07:25:15;2.20;;;1.80;;
32146;SDS011;32190;49.112;8.598;2022-10-13T07:31:10;3.13;;;2.00;;
32146;SDS011;32190;49.112;8.598;2022-10-13T07:37:03;3.22;;;2.42;;
32146;SDS011;32190;49.112;8.598;2022-10-13T07:42:54;2.03;;;1.83;;
32146;SDS011;32190;49.112;8.598;2022-10-13T07:48:46;2.60;;;2.20;;
32146;SDS011;32190;49.112;8.598;2022-10-13T07:54:36;1.80;;;1.70;;
32146;SDS011;32190;49.112;8.598;2022-10-13T08:00:27;1.90;;;1.55;;
32146;SDS011;32190;49.112;8.598;2022-10-13T08:06:18;1.73;;;1.58;;
32146;SDS011;32190;49.112;8.598;2022-10-13T08:12:08;3.03;;;2.63;;
32146;SDS011;32190;49.112;8.598;2022-10-13T08:18:00;1.70;;;1.60;;
32146;SDS011;32190;49.112;8.598;2022-10-13T08:23:50;2.20;;;1.95;;
32146;SDS011;32190;49.112;8.598;2022-10-13T08:29:41;3.13;;;1.90;;
32146;SDS011;32190;49.112;8.598;2022-10-13T08:35:32;3.10;;;2.00;;
32146;SDS011;32190;49.112;8.598;2022-10-13T08:41:23;3.83;;;2.88;;
32146;SDS011;32190;49.112;8.598;2022-10-13T08:59:23;3.10;;;2.05;;
32146;SDS011;32190;49.112;8.598;2022-10-13T09:11:31;3.35;;;2.80;;
32146;SDS011;32190;49.112;8.598;2022-10-13T09:17:23;2.10;;;1.88;;
32146;SDS011;32190;49.112;8.598;2022-10-13T09:23:19;4.03;;;2.75;;
32146;SDS011;32190;49.112;8.598;2022-10-13T09:29:19;3.67;;;2.22;;
32146;SDS011;32190;49.112;8.598;2022-10-13T09:35:19;2.83;;;2.50;;
32146;SDS011;32190;49.112;8.598;2022-10-13T09:41:12;2.65;;;2.28;;
32146;SDS011;32190;49.112;8.598;2022-10-13T09:47:13;1.50;;;1.40;;
32146;SDS011;32190;49.112;8.598;2022-10-13T09:53:15;2.55;;;1.85;;
32146;SDS011;32190;49.112;8.598;2022-10-13T09:59:22;2.70;;;2.10;;
32146;SDS011;32190;49.112;8.598;2022-10-13T10:05:26;4.38;;;2.08;;
32146;SDS011;32190;49.112;8.598;2022-10-13T10:17:30;4.85;;;3.13;;
32146;SDS011;32190;49.112;8.598;2022-10-13T10:23:41;6.20;;;3.28;;
32146;SDS011;32190;49.112;8.598;2022-10-13T10:29:50;3.50;;;2.95;;
32146;SDS011;32190;49.112;8.598;2022-10-13T10:47:51;5.15;;;4.03;;
32146;SDS011;32190;49.112;8.598;2022-10-13T10:53:56;6.32;;;4.65;;
32146;SDS011;32190;49.112;8.598;2022-10-13T10:59:59;4.22;;;2.88;;
32146;SDS011;32190;49.112;8.598;2022-10-13T11:05:59;3.70;;;3.40;;
32146;SDS011;32190;49.112;8.598;2022-10-13T11:11:52;6.50;;;3.25;;
32146;SDS011;32190;49.112;8.598;2022-10-13T11:17:43;8.27;;;3.38;;
32146;SDS011;32190;49.112;8.598;2022-10-13T11:23:33;5.28;;;3.05;;
32146;SDS011;32190;49.112;8.598;2022-10-13T11:35:35;3.63;;;2.55;;
32146;SDS011;32190;49.112;8.598;2022-10-13T11:41:27;6.05;;;3.78;;
32146;SDS011;32190;49.112;8.598;2022-10-13T11:53:32;4.20;;;3.80;;
32146;SDS011;32190;49.112;8.598;2022-10-13T11:59:35;3.72;;;2.97;;
32146;SDS011;32190;49.112;8.598;2022-10-13T12:05:27;3.83;;;2.88;;
32146;SDS011;32190;49.112;8.598;2022-10-13T12:11:36;3.30;;;3.05;;
32146;SDS011;32190;49.112;8.598;2022-10-13T12:17:33;2.83;;;2.45;;
32146;SDS011;32190;49.112;8.598;2022-10-13T12:23:25;3.95;;;3.50;;
32146;SDS011;32190;49.112;8.598;2022-10-13T12:29:16;3.38;;;2.42;;
32146;SDS011;32190;49.112;8.598;2022-10-13T12:35:14;5.63;;;3.08;;
32146;SDS011;32190;49.112;8.598;2022-10-13T12:41:17;3.25;;;2.45;;
32146;SDS011;32190;49.112;8.598;2022-10-13T12:47:35;4.18;;;3.00;;
32146;SDS011;32190;49.112;8.598;2022-10-13T12:53:32;3.78;;;2.83;;
32146;SDS011;32190;49.112;8.598;2022-10-13T12:59:23;4.03;;;2.85;;
32146;SDS011;32190;49.112;8.598;2022-10-13T13:05:29;4.80;;;2.95;;
32146;SDS011;32190;49.112;8.598;2022-10-13T13:11:33;3.30;;;2.47;;
32146;SDS011;32190;49.112;8.598;2022-10-13T13:17:27;2.85;;;2.65;;
32146;SDS011;32190;49.112;8.598;2022-10-13T13:23:20;3.97;;;3.22;;
32146;SDS011;32190;49.112;8.598;2022-10-13T13:29:16;5.10;;;3.17;;
32146;SDS011;32190;49.112;8.598;2022-10-13T13:35:07;3.13;;;2.63;;
32146;SDS011;32190;49.112;8.598;2022-10-13T13:40:58;4.03;;;3.10;;
32146;SDS011;32190;49.112;8.598;2022-10-13T13:46:48;4.90;;;3.33;;
32146;SDS011;32190;49.112;8.598;2022-10-13T13:52:44;4.40;;;3.03;;
32146;SDS011;32190;49.112;8.598;2022-10-13T13:58:35;1.90;;;1.65;;
32146;SDS011;32190;49.112;8.598;2022-10-13T14:04:41;4.70;;;2.65;;
32146;SDS011;32190;49.112;8.598;2022-10-13T14:10:37;3.88;;;2.90;;
32146;SDS011;32190;49.112;8.598;2022-10-13T14:16:29;3.03;;;2.80;;
32146;SDS011;32190;49.112;8.598;2022-10-13T14:22:20;2.80;;;2.53;;
32146;SDS011;32190;49.112;8.598;2022-10-13T14:28:11;4.07;;;2.60;;
32146;SDS011;32190;49.112;8.598;2022-10-13T14:34:02;5.43;;;2.70;;
32146;SDS011;32190;49.112;8.598;2022-10-13T14:39:52;6.57;;;2.97;;
32146;SDS011;32190;49.112;8.598;2022-10-13T14:45:43;3.25;;;2.95;;
32146;SDS011;32190;49.112;8.598;2022-10-13T14:51:33;3.20;;;2.15;;
32146;SDS011;32190;49.112;8.598;2022-10-13T14:57:24;2.67;;;2.42;;
32146;SDS011;32190;49.112;8.598;2022-10-13T15:03:14;2.55;;;2.33;;
32146;SDS011;32190;49.112;8.598;2022-10-13T15:09:07;3.70;;;2.10;;
32146;SDS011;32190;49.112;8.598;2022-10-13T15:15:07;2.80;;;1.98;;
32146;SDS011;32190;49.112;8.598;2022-10-13T15:20:58;2.10;;;1.90;;
32146;SDS011;32190;49.112;8.598;2022-10-13T15:26:48;4.90;;;2.70;;
32146;SDS011;32190;49.112;8.598;2022-10-13T15:32:39;2.53;;;2.13;;
32146;SDS011;32190;49.112;8.598;2022-10-13T15:38:32;4.05;;;2.03;;
32146;SDS011;32190;49.112;8.598;2022-10-13T15:44:25;1.98;;;1.88;;
32146;SDS011;32190;49.112;8.598;2022-10-13T15:50:17;2.10;;;1.90;;
32146;SDS011;32190;49.112;8.598;2022-10-13T15:56:07;3.10;;;2.80;;
32146;SDS011;32190;49.112;8.598;2022-10-13T16:02:01;1.80;;;1.63;;
32146;SDS011;32190;49.112;8.598;2022-10-13T16:07:54;2.67;;;2.45;;
32146;SDS011;32190;49.112;8.598;2022-10-13T16:13:49;5.47;;;2.00;;
32146;SDS011;32190;49.112;8.598;2022-10-13T16:19:43;2.00;;;1.75;;
32146;SDS011;32190;49.112;8.598;2022-10-13T16:25:37;2.90;;;1.98;;
32146;SDS011;32190;49.112;8.598;2022-10-13T16:31:28;2.78;;;1.80;;
32146;SDS011;32190;49.112;8.598;2022-10-13T16:37:19;1.90;;;1.80;;
32146;SDS011;32190;49.112;8.598;2022-10-13T16:43:12;2.22;;;1.75;;
32146;SDS011;32190;49.112;8.598;2022-10-13T16:49:03;1.65;;;1.38;;
32146;SDS011;32190;49.112;8.598;2022-10-13T16:54:53;2.30;;;2.00;;
32146;SDS011;32190;49.112;8.598;2022-10-13T17:00:44;4.32;;;2.03;;
32146;SDS011;32190;49.112;8.598;2022-10-13T17:06:35;3.72;;;2.03;;
32146;SDS011;32190;49.112;8.598;2022-10-13T17:12:28;2.47;;;1.75;;
32146;SDS011;32190;49.112;8.598;2022-10-13T17:18:18;2.08;;;1.83;;
32146;SDS011;32190;49.112;8.598;2022-10-13T17:24:09;2.28;;;1.77;;
32146;SDS011;32190;49.112;8.598;2022-10-13T17:30:03;1.88;;;1.77;;
32146;SDS011;32190;49.112;8.598;2022-10-13T17:36:00;2.17;;;1.85;;
32146;SDS011;32190;49.112;8.598;2022-10-13T17:41:58;1.73;;;1.63;;
32146;SDS011;32190;49.112;8.598;2022-10-13T17:47:49;1.27;;;1.25;;
32146;SDS011;32190;49.112;8.598;2022-10-13T17:53:58;2.75;;;1.50;;
32146;SDS011;32190;49.112;8.598;2022-10-13T17:59:50;1.48;;;1.38;;
32146;SDS011;32190;49.112;8.598;2022-10-13T18:05:41;1.73;;;1.58;;
32146;SDS011;32190;49.112;8.598;2022-10-13T18:11:31;2.60;;;1.80;;
32146;SDS011;32190;49.112;8.598;2022-10-13T18:17:22;2.05;;;1.95;;
32146;SDS011;32190;49.112;8.598;2022-10-13T18:23:23;2.58;;;2.38;;
32146;SDS011;32190;49.112;8.598;2022-10-13T18:29:20;2.25;;;1.90;;
32146;SDS011;32190;49.112;8.598;2022-10-13T18:35:16;3.83;;;2.38;;
32146;SDS011;32190;49.112;8.598;2022-10-13T18:41:09;2.50;;;2.30;;
32146;SDS011;32190;49.112;8.598;2022-10-13T18:47:09;1.58;;;1.48;;
32146;SDS011;32190;49.112;8.598;2022-10-13T18:52:59;2.35;;;1.77;;
32146;SDS011;32190;49.112;8.598;2022-10-13T18:58:50;2.47;;;2.17;;
32146;SDS011;32190;49.112;8.598;2022-10-13T19:04:42;2.13;;;1.90;;
32146;SDS011;32190;49.112;8.598;2022-10-13T19:10:32;2.30;;;1.85;;
32146;SDS011;32190;49.112;8.598;2022-10-13T19:16:24;2.10;;;1.67;;
32146;SDS011;32190;49.112;8.598;2022-10-13T19:22:16;3.13;;;1.95;;
32146;SDS011;32190;49.112;8.598;2022-10-13T19:28:07;3.70;;;2.10;;
32146;SDS011;32190;49.112;8.598;2022-10-13T19:34:04;1.90;;;1.80;;
32146;SDS011;32190;49.112;8.598;2022-10-13T19:39:57;3.63;;;1.67;;
32146;SDS011;32190;49.112;8.598;2022-10-13T19:52:39;2.30;;;2.00;;
32146;SDS011;32190;49.112;8.598;2022-10-13T19:58:40;3.03;;;2.10;;
32146;SDS011;32190;49.112;8.598;2022-10-13T20:04:33;1.83;;;1.52;;
32146;SDS011;32190;49.112;8.598;2022-10-13T20:16:30;1.58;;;1.48;;
32146;SDS011;32190;49.112;8.598;2022-10-13T20:36:57;3.17;;;1.87;;
32146;SDS011;32190;49.112;8.598;2022-10-13T20:42:57;1.45;;;1.35;;
32146;SDS011;32190;49.112;8.598;2022-10-13T20:48:48;2.70;;;2.08;;
32146;SDS011;32190;49.112;8.598;2022-10-13T20:54:39;2.05;;;1.77;;
32146;SDS011;32190;49.112;8.598;2022-10-13T21:00:30;2.20;;;1.38;;
32146;SDS011;32190;49.112;8.598;2022-10-13T21:06:21;1.17;;;1.17;;
32146;SDS011;32190;49.112;8.598;2022-10-13T21:12:15;2.05;;;1.83;;
32146;SDS011;32190;49.112;8.598;2022-10-13T21:18:08;2.03;;;1.73;;
32146;SDS011;32190;49.112;8.598;2022-10-13T21:24:03;1.83;;;1.70;;
32146;SDS011;32190;49.112;8.598;2022-10-13T21:30:01;2.03;;;1.83;;
32146;SDS011;32190;49.112;8.598;2022-10-13T21:36:44;1.85;;;1.73;;
32146;SDS011;32190;49.112;8.598;2022-10-13T21:42:22;2.40;;;2.20;;
32146;SDS011;32190;49.112;8.598;2022-10-13T21:48:21;2.30;;;1.70;;
32146;SDS011;32190;49.112;8.598;2022-10-13T21:54:12;4.88;;;2.35;;
32146;SDS011;32190;49.112;8.598;2022-10-13T22:00:03;2.25;;;1.83;;
32146;SDS011;32190;49.112;8.598;2022-10-13T22:06:02;2.30;;;1.95;;
32146;SDS011;32190;49.112;8.598;2022-10-13T22:11:53;2.22;;;1.92;;
32146;SDS011;32190;49.112;8.598;2022-10-13T22:17:46;2.88;;;2.30;;
32146;SDS011;32190;49.112;8.598;2022-10-13T22:23:37;2.80;;;2.17;;
32146;SDS011;32190;49.112;8.598;2022-10-13T22:29:27;3.65;;;2.83;;
32146;SDS011;32190;49.112;8.598;2022-10-13T22:35:18;4.47;;;2.40;;
32146;SDS011;32190;49.112;8.598;2022-10-13T22:41:09;2.45;;;2.22;;
32146;SDS011;32190;49.112;8.598;2022-10-13T22:47:00;3.80;;;2.35;;
32146;SDS011;32190;49.112;8.598;2022-10-13T22:52:50;2.20;;;1.90;;
32146;SDS011;32190;49.112;8.598;2022-10-13T22:58:41;2.17;;;2.00;;
32146;SDS011;32190;49.112;8.598;2022-10-13T23:04:32;2.00;;;1.75;;
32146;SDS011;32190;49.112;8.598;2022-10-13T23:10:23;2.67;;;2.05;;
32146;SDS011;32190;49.112;8.598;2022-10-13T23:16:15;3.28;;;1.50;;
32146;SDS011;32190;49.112;8.598;2022-10-13T23:22:15;2.65;;;1.75;;
32146;SDS011;32190;49.112;8.598;2022-10-13T23:28:06;1.48;;;1.38;;
32146;SDS011;32190;49.112;8.598;2022-10-13T23:33:59;1.75;;;1.65;;
32146;SDS011;32190;49.112;8.598;2022-10-13T23:39:50;5.35;;;2.13;;
32146;SDS011;32190;49.112;8.598;2022-10-13T23:45:40;3.58;;;1.95;;
32146;SDS011;32190;49.112;8.598;2022-10-13T23:51:31;1.80;;;1.65;;
32146;SDS011;32190;49.112;8.598;2022-10-13T23:57:22;2.05;;;1.58;;
